Terminal Aerodrome Forecast
Issued by NWS

Home | Current Version | Previous Version | Text Only | Print | Product List | Glossary On
Versions: 1 2 3 4 5 6 7 8 9 10 11 12 13 14 15
000
FTUS44 KTSA 011800 AAA
TAFXNA
TAF AMD
KXNA 011806Z 0118/0218 30015G25KT P6SM OVC010
     FM020000 30013KT P6SM BKN025
     FM020600 32011KT P6SM BKN050
     FM021200 34006KT P6SM SKC=

USA.gov is the U.S. government's official web portal to all federal, state and local government web resources and services.